Time;durP1;ratioP1;P1;durP2;ratioP2;P2;SDS_P1;SDS_P2;PMS_P1;PMS_P2;Temp;Humidity;BMP_temperature;BMP_pressure;BME280_temperature;BME280_humidity;BME280_pressure;Samples;Min_cycle;Max_cycle;Signal;HPM_P1;HPM_P2
2022/05/20 00:00:15;;;;;;;7.32;5.18;;;;;;;;;;4994763;28;20054;-81
2022/05/20 00:02:41;;;;;;;7.28;5.35;;;;;;;;;;4991557;28;20049;-80
2022/05/20 00:05:07;;;;;;;8.32;5.60;;;;;;;;;;4986659;28;20050;-80
2022/05/20 00:07:36;;;;;;;10.48;7.28;;;;;;;;;;5000739;28;20066;-80
2022/05/20 00:10:02;;;;;;;9.23;6.50;;;;;;;;;;4999659;28;20090;-81
2022/05/20 00:12:28;;;;;;;9.75;5.80;;;;;;;;;;4995802;28;20120;-81
2022/05/20 00:14:54;;;;;;;8.55;6.32;;;;;;;;;;4998665;28;20053;-81
2022/05/20 00:17:20;;;;;;;7.30;5.70;;;;;;;;;;4990088;28;20034;-83
2022/05/20 00:19:47;;;;;;;10.30;5.38;;;;;;;;;;4993623;28;20074;-81
2022/05/20 00:22:13;;;;;;;10.73;6.35;;;;;;;;;;4991698;28;20076;-80
2022/05/20 00:25:45;;;;;;;7.88;5.45;;;;;;;;;;4996779;28;20085;-80
2022/05/20 00:27:25;;;;;;;8.25;5.70;;;;;;;;;;4993638;28;20046;-80
2022/05/20 00:29:51;;;;;;;6.70;5.07;;;;;;;;;;5000961;28;20046;-80
2022/05/20 00:32:18;;;;;;;9.85;4.85;;;;;;;;;;4995135;28;20487;-81
2022/05/20 00:34:44;;;;;;;8.60;5.20;;;;;;;;;;4992987;28;20164;-80
2022/05/20 00:37:10;;;;;;;10.13;5.70;;;;;;;;;;5004361;28;20402;-80
2022/05/20 00:39:36;;;;;;;8.25;5.50;;;;;;;;;;5000551;28;20042;-81
2022/05/20 00:42:09;;;;;;;6.45;4.82;;;;;;;;;;4997087;28;20410;-80
2022/05/20 00:44:35;;;;;;;7.25;5.00;;;;;;;;;;4995814;28;20466;-80
2022/05/20 00:47:01;;;;;;;9.30;5.70;;;;;;;;;;4998118;28;20047;-80
2022/05/20 00:49:30;;;;;;;9.90;5.78;;;;;;;;;;4992392;28;20184;-81
2022/05/20 00:51:58;;;;;;;7.38;4.97;;;;;;;;;;5000837;28;20080;-81
2022/05/20 00:54:30;;;;;;;9.40;5.80;;;;;;;;;;4994289;28;20116;-80
2022/05/20 00:57:01;;;;;;;8.27;5.80;;;;;;;;;;5000364;28;20061;-80
2022/05/20 00:59:29;;;;;;;11.35;5.60;;;;;;;;;;4996121;28;20104;-80
2022/05/20 01:01:56;;;;;;;10.32;5.72;;;;;;;;;;4992116;28;20054;-80
2022/05/20 01:04:22;;;;;;;10.27;5.57;;;;;;;;;;4997350;28;20482;-81
2022/05/20 01:06:49;;;;;;;8.82;5.43;;;;;;;;;;4987525;28;20384;-80
2022/05/20 01:09:15;;;;;;;7.78;5.13;;;;;;;;;;4995682;28;20050;-80
2022/05/20 01:11:41;;;;;;;8.15;4.95;;;;;;;;;;4996958;28;20064;-80
2022/05/20 01:14:08;;;;;;;7.60;4.38;;;;;;;;;;4996741;28;20050;-80
2022/05/20 01:16:35;;;;;;;6.32;4.20;;;;;;;;;;5022913;28;20042;-80
2022/05/20 01:19:01;;;;;;;5.82;4.15;;;;;;;;;;4999949;28;20088;-81
2022/05/20 01:21:28;;;;;;;5.90;3.90;;;;;;;;;;5003647;28;20177;-80
2022/05/20 01:23:59;;;;;;;9.73;4.80;;;;;;;;;;5006920;28;20042;-80
2022/05/20 01:26:26;;;;;;;6.78;4.10;;;;;;;;;;4995404;28;20185;-80
2022/05/20 01:28:51;;;;;;;7.53;3.78;;;;;;;;;;5004086;28;20100;-80
2022/05/20 01:31:18;;;;;;;6.05;4.38;;;;;;;;;;4998567;28;20466;-80
2022/05/20 01:33:49;;;;;;;7.50;3.60;;;;;;;;;;4999231;28;20085;-80
2022/05/20 01:36:16;;;;;;;7.35;3.50;;;;;;;;;;5002928;28;20072;-80
2022/05/20 01:38:42;;;;;;;7.93;3.60;;;;;;;;;;5003985;28;20233;-80
2022/05/20 01:41:10;;;;;;;6.30;3.85;;;;;;;;;;4991521;28;20046;-80
2022/05/20 01:43:45;;;;;;;8.48;4.15;;;;;;;;;;4992388;28;20521;-80
2022/05/20 01:46:30;;;;;;;7.18;3.20;;;;;;;;;;5001711;28;20121;-80
2022/05/20 01:48:56;;;;;;;7.85;3.95;;;;;;;;;;4994586;28;20082;-80
2022/05/20 01:51:24;;;;;;;7.50;3.58;;;;;;;;;;4993040;28;20037;-80
2022/05/20 01:53:53;;;;;;;9.48;3.45;;;;;;;;;;4998001;28;20164;-80
2022/05/20 01:56:22;;;;;;;7.85;3.80;;;;;;;;;;4999829;28;20120;-80
2022/05/20 01:58:51;;;;;;;5.65;3.55;;;;;;;;;;4997253;28;20051;-80
2022/05/20 02:01:20;;;;;;;6.28;3.97;;;;;;;;;;4991531;28;20483;-81
2022/05/20 02:03:54;;;;;;;9.98;3.72;;;;;;;;;;4992749;28;20501;-79
2022/05/20 02:06:39;;;;;;;6.00;3.70;;;;;;;;;;5002364;28;20073;-80
2022/05/20 02:09:07;;;;;;;8.30;4.10;;;;;;;;;;5001046;28;20052;-80
2022/05/20 02:11:39;;;;;;;6.28;3.58;;;;;;;;;;4998771;28;20125;-80
2022/05/20 02:14:09;;;;;;;5.47;3.38;;;;;;;;;;4999151;28;20486;-80
2022/05/20 02:16:38;;;;;;;6.93;3.63;;;;;;;;;;4994046;28;20038;-80
2022/05/20 02:19:08;;;;;;;6.97;3.45;;;;;;;;;;5001782;28;20042;-79
2022/05/20 02:21:36;;;;;;;5.63;3.28;;;;;;;;;;5002232;28;20486;-80
2022/05/20 02:24:05;;;;;;;6.38;3.45;;;;;;;;;;4997761;28;20576;-79
2022/05/20 02:26:33;;;;;;;5.07;3.05;;;;;;;;;;4995749;28;20046;-80
2022/05/20 02:29:04;;;;;;;4.85;3.15;;;;;;;;;;5004591;28;20104;-79
2022/05/20 02:31:34;;;;;;;4.88;3.00;;;;;;;;;;4994439;28;20107;-80
2022/05/20 02:34:00;;;;;;;6.68;2.92;;;;;;;;;;4996934;28;20134;-80
2022/05/20 02:36:32;;;;;;;5.72;3.05;;;;;;;;;;4997340;28;20176;-81
2022/05/20 02:38:58;;;;;;;6.13;2.88;;;;;;;;;;5000573;28;20094;-79
2022/05/20 02:41:25;;;;;;;5.32;2.70;;;;;;;;;;4995008;28;20046;-80
2022/05/20 02:43:51;;;;;;;9.25;3.13;;;;;;;;;;4999599;28;20060;-79
2022/05/20 02:46:20;;;;;;;6.00;2.83;;;;;;;;;;4997459;28;20482;-80
2022/05/20 02:48:46;;;;;;;4.70;2.90;;;;;;;;;;4997298;28;20057;-80
2022/05/20 02:51:12;;;;;;;5.82;2.95;;;;;;;;;;4996580;28;20052;-80
2022/05/20 02:53:38;;;;;;;6.18;3.30;;;;;;;;;;4996692;28;20058;-79
2022/05/20 02:56:04;;;;;;;5.55;3.20;;;;;;;;;;5001473;28;20079;-80
2022/05/20 03:04:10;;;;;;;7.93;3.72;;;;;;;;;;4999744;28;20041;-80
2022/05/20 03:06:37;;;;;;;6.72;3.47;;;;;;;;;;4999701;28;20380;-80
2022/05/20 03:09:04;;;;;;;4.75;3.00;;;;;;;;;;4999519;28;20038;-80
2022/05/20 03:11:30;;;;;;;5.57;3.10;;;;;;;;;;4998980;28;20441;-80
2022/05/20 03:13:56;;;;;;;3.65;3.22;;;;;;;;;;5000749;28;20038;-79
2022/05/20 03:16:21;;;;;;;5.07;3.05;;;;;;;;;;4999039;28;20168;-80
2022/05/20 03:18:47;;;;;;;5.93;3.33;;;;;;;;;;5001945;28;20049;-80
2022/05/20 03:21:14;;;;;;;5.25;3.40;;;;;;;;;;4995623;28;20434;-79
2022/05/20 03:23:40;;;;;;;5.93;3.47;;;;;;;;;;4996540;28;20050;-80
2022/05/20 03:26:06;;;;;;;5.93;3.13;;;;;;;;;;5003973;28;20158;-79
2022/05/20 03:28:34;;;;;;;5.70;3.35;;;;;;;;;;4996065;28;20133;-80
2022/05/20 03:31:07;;;;;;;5.07;2.88;;;;;;;;;;4992912;28;20046;-80
2022/05/20 03:33:34;;;;;;;3.88;3.00;;;;;;;;;;4991120;28;20129;-80
2022/05/20 03:36:00;;;;;;;6.18;3.30;;;;;;;;;;5001410;28;20054;-80
2022/05/20 03:38:26;;;;;;;6.25;3.55;;;;;;;;;;4990411;28;20509;-80
2022/05/20 03:40:52;;;;;;;4.78;3.20;;;;;;;;;;4995362;28;20045;-79
2022/05/20 03:43:18;;;;;;;5.60;3.50;;;;;;;;;;4999486;28;20060;-80
2022/05/20 03:45:44;;;;;;;7.38;3.10;;;;;;;;;;4990635;28;20046;-80
2022/05/20 03:48:11;;;;;;;5.45;3.30;;;;;;;;;;4991272;28;20049;-80
2022/05/20 03:50:37;;;;;;;9.05;3.47;;;;;;;;;;4997239;28;20040;-80
2022/05/20 03:53:04;;;;;;;4.18;2.97;;;;;;;;;;4997814;28;20068;-80
2022/05/20 03:55:30;;;;;;;7.35;4.00;;;;;;;;;;4987965;28;20072;-80
2022/05/20 03:57:56;;;;;;;5.50;3.70;;;;;;;;;;5000095;28;20197;-80
2022/05/20 04:00:22;;;;;;;5.78;3.70;;;;;;;;;;4994533;28;20039;-80
2022/05/20 04:02:48;;;;;;;4.88;3.33;;;;;;;;;;4993604;28;20117;-80
2022/05/20 04:05:14;;;;;;;4.53;3.50;;;;;;;;;;4990352;28;20999;-80
2022/05/20 04:07:40;;;;;;;6.85;3.50;;;;;;;;;;4991180;28;20038;-80
2022/05/20 04:10:07;;;;;;;6.57;3.50;;;;;;;;;;4997425;28;20058;-80
2022/05/20 04:12:34;;;;;;;4.15;3.70;;;;;;;;;;4997918;28;20053;-79
2022/05/20 04:15:01;;;;;;;6.72;3.65;;;;;;;;;;4996280;28;20045;-80
2022/05/20 04:17:28;;;;;;;4.88;3.90;;;;;;;;;;4990867;28;20047;-80
2022/05/20 04:19:54;;;;;;;5.15;3.58;;;;;;;;;;4997786;28;20494;-80
2022/05/20 04:22:31;;;;;;;6.47;4.07;;;;;;;;;;4998689;28;20042;-79
2022/05/20 04:24:58;;;;;;;6.22;3.90;;;;;;;;;;4998671;28;20038;-79
2022/05/20 04:27:30;;;;;;;6.63;4.07;;;;;;;;;;4997699;28;20485;-80
2022/05/20 04:30:00;;;;;;;6.00;3.78;;;;;;;;;;4994393;28;20166;-79
2022/05/20 04:32:26;;;;;;;6.70;4.10;;;;;;;;;;4987731;28;20058;-80
2022/05/20 04:34:52;;;;;;;5.65;3.83;;;;;;;;;;4996641;28;20050;-80
2022/05/20 04:37:18;;;;;;;7.72;3.78;;;;;;;;;;4991304;28;20056;-80
2022/05/20 04:39:44;;;;;;;5.55;4.07;;;;;;;;;;5000485;28;20141;-80
2022/05/20 04:47:47;;;;;;;6.28;5.32;;;;;;;;;;4984922;28;20050;-80
2022/05/20 04:50:13;;;;;;;6.60;5.68;;;;;;;;;;4998979;28;20057;-80
2022/05/20 04:52:39;;;;;;;7.35;5.70;;;;;;;;;;5005648;28;20042;-80
2022/05/20 04:55:06;;;;;;;7.70;5.95;;;;;;;;;;5000074;28;20042;-80
2022/05/20 04:57:37;;;;;;;7.50;5.72;;;;;;;;;;4998545;28;20038;-80
2022/05/20 05:00:05;;;;;;;7.57;5.65;;;;;;;;;;4996408;28;20484;-80
2022/05/20 05:02:32;;;;;;;6.25;5.63;;;;;;;;;;4994996;28;20324;-80
2022/05/20 05:04:58;;;;;;;9.55;7.00;;;;;;;;;;5003653;28;20045;-81
2022/05/20 05:07:24;;;;;;;9.52;6.43;;;;;;;;;;5001182;28;20544;-80
2022/05/20 05:09:51;;;;;;;11.82;8.45;;;;;;;;;;5003564;28;20049;-80
2022/05/20 05:12:18;;;;;;;9.77;8.55;;;;;;;;;;4997979;28;20042;-80
2022/05/20 05:14:48;;;;;;;8.15;7.30;;;;;;;;;;5000913;28;20038;-80
2022/05/20 05:17:16;;;;;;;8.93;6.63;;;;;;;;;;4998821;28;20129;-80
2022/05/20 05:19:44;;;;;;;8.43;6.72;;;;;;;;;;4994288;28;20046;-80
2022/05/20 05:22:10;;;;;;;9.63;6.95;;;;;;;;;;5000186;28;20045;-80
2022/05/20 05:24:37;;;;;;;7.80;6.63;;;;;;;;;;5000929;28;20121;-80
2022/05/20 05:27:05;;;;;;;9.80;6.85;;;;;;;;;;5002774;28;20065;-80
2022/05/20 05:29:31;;;;;;;8.57;6.63;;;;;;;;;;4995440;28;20288;-80
2022/05/20 05:31:58;;;;;;;11.63;7.03;;;;;;;;;;4999309;28;20068;-80
2022/05/20 05:34:24;;;;;;;9.70;6.88;;;;;;;;;;4991499;28;20147;-80
2022/05/20 05:36:50;;;;;;;8.73;6.63;;;;;;;;;;4999559;28;20061;-79
2022/05/20 05:39:16;;;;;;;12.50;6.88;;;;;;;;;;4994857;28;20394;-80
2022/05/20 05:41:42;;;;;;;8.63;6.68;;;;;;;;;;4998863;28;20045;-80
2022/05/20 05:44:08;;;;;;;10.63;6.82;;;;;;;;;;5003633;28;20048;-80
2022/05/20 05:46:34;;;;;;;9.48;6.57;;;;;;;;;;5004217;28;20042;-80
2022/05/20 05:49:03;;;;;;;8.93;6.38;;;;;;;;;;5006212;28;20046;-80
2022/05/20 05:51:29;;;;;;;9.48;6.82;;;;;;;;;;4995986;28;20043;-80
2022/05/20 05:53:56;;;;;;;7.78;6.60;;;;;;;;;;4995973;28;20065;-80
2022/05/20 05:56:23;;;;;;;9.35;6.90;;;;;;;;;;5018698;28;20050;-81
2022/05/20 05:58:49;;;;;;;9.75;6.63;;;;;;;;;;4998250;28;20045;-81
2022/05/20 06:01:17;;;;;;;11.57;6.45;;;;;;;;;;4987347;28;20414;-80
2022/05/20 06:03:43;;;;;;;9.13;6.43;;;;;;;;;;4987449;28;20177;-80
2022/05/20 06:06:09;;;;;;;8.63;6.25;;;;;;;;;;4982256;28;20133;-80
2022/05/20 06:08:38;;;;;;;8.40;6.05;;;;;;;;;;4987077;28;20073;-80
2022/05/20 06:11:04;;;;;;;8.75;6.00;;;;;;;;;;4993264;28;20043;-81
2022/05/20 06:13:30;;;;;;;6.63;5.80;;;;;;;;;;4995041;28;20149;-81
2022/05/20 06:15:57;;;;;;;7.30;5.75;;;;;;;;;;4999915;28;20073;-80
2022/05/20 06:18:23;;;;;;;7.85;5.28;;;;;;;;;;4995949;28;20196;-81
2022/05/20 06:20:49;;;;;;;8.98;5.60;;;;;;;;;;4982648;28;20636;-81
2022/05/20 06:23:16;;;;;;;9.13;6.18;;;;;;;;;;4981014;28;20046;-81
2022/05/20 06:25:42;;;;;;;8.43;5.80;;;;;;;;;;5000387;28;20124;-80
2022/05/20 06:28:13;;;;;;;6.50;5.55;;;;;;;;;;4990638;28;20054;-81
2022/05/20 06:30:39;;;;;;;9.23;5.95;;;;;;;;;;4986140;28;20068;-81
2022/05/20 06:33:05;;;;;;;8.40;5.93;;;;;;;;;;4986808;28;20046;-81
2022/05/20 06:41:02;;;;;;;9.48;6.22;;;;;;;;;;5002422;28;20086;-81
2022/05/20 06:43:28;;;;;;;7.07;5.53;;;;;;;;;;4999077;28;20042;-81
2022/05/20 06:46:00;;;;;;;8.85;5.55;;;;;;;;;;4994881;28;20154;-81
2022/05/20 06:48:36;;;;;;;7.18;5.78;;;;;;;;;;4993348;28;20050;-81
2022/05/20 06:51:04;;;;;;;9.30;6.53;;;;;;;;;;4994244;28;20045;-81
2022/05/20 06:53:30;;;;;;;9.38;5.78;;;;;;;;;;4996535;28;20042;-80
2022/05/20 06:55:57;;;;;;;8.45;5.63;;;;;;;;;;4989448;28;20049;-80
2022/05/20 06:58:26;;;;;;;9.55;5.88;;;;;;;;;;4985874;28;20050;-80
2022/05/20 07:00:52;;;;;;;9.23;5.78;;;;;;;;;;5001595;28;20049;-80
2022/05/20 07:03:20;;;;;;;8.73;6.53;;;;;;;;;;4998275;28;20466;-80
2022/05/20 07:05:46;;;;;;;8.65;6.25;;;;;;;;;;4997112;28;20561;-80
2022/05/20 07:08:13;;;;;;;9.73;6.10;;;;;;;;;;4990717;28;20038;-80
2022/05/20 07:10:40;;;;;;;6.47;5.88;;;;;;;;;;5006505;28;20064;-81
2022/05/20 07:13:06;;;;;;;7.80;6.65;;;;;;;;;;4999328;28;20782;-81
2022/05/20 07:15:32;;;;;;;11.77;7.00;;;;;;;;;;4996773;28;20046;-80
2022/05/20 07:17:58;;;;;;;8.05;6.60;;;;;;;;;;4986646;28;20557;-80
2022/05/20 07:20:24;;;;;;;10.40;6.53;;;;;;;;;;4981945;28;20038;-80
2022/05/20 07:22:50;;;;;;;8.25;7.00;;;;;;;;;;4992401;28;20050;-79
2022/05/20 07:25:18;;;;;;;10.15;7.78;;;;;;;;;;4995593;28;20144;-79
2022/05/20 07:27:45;;;;;;;9.88;8.23;;;;;;;;;;4992951;28;20058;-79
2022/05/20 07:30:13;;;;;;;8.85;7.65;;;;;;;;;;4985923;28;20050;-79
2022/05/20 07:32:39;;;;;;;8.40;7.38;;;;;;;;;;4998088;28;20140;-80
2022/05/20 07:35:06;;;;;;;9.00;7.35;;;;;;;;;;4978980;28;20129;-81
2022/05/20 07:37:32;;;;;;;9.23;8.18;;;;;;;;;;4996873;28;20038;-81
2022/05/20 07:39:59;;;;;;;10.77;7.80;;;;;;;;;;5003421;28;20054;-80
2022/05/20 07:42:25;;;;;;;10.15;7.75;;;;;;;;;;4998312;28;20479;-81
2022/05/20 07:44:51;;;;;;;7.90;7.10;;;;;;;;;;5007750;28;20038;-81
2022/05/20 07:47:18;;;;;;;9.63;8.05;;;;;;;;;;5003888;28;20041;-80
2022/05/20 07:49:44;;;;;;;10.80;7.35;;;;;;;;;;5000341;28;20047;-80
2022/05/20 07:52:11;;;;;;;8.82;7.47;;;;;;;;;;4990668;28;20513;-80
2022/05/20 07:54:46;;;;;;;13.50;8.18;;;;;;;;;;4998010;28;20050;-81
2022/05/20 07:57:13;;;;;;;9.38;7.78;;;;;;;;;;4985917;28;20410;-81
2022/05/20 07:59:53;;;;;;;10.68;8.43;;;;;;;;;;4988196;28;20047;-82
2022/05/20 08:02:20;;;;;;;11.13;7.93;;;;;;;;;;4992379;28;20148;-83
2022/05/20 08:05:00;;;;;;;9.50;8.50;;;;;;;;;;5003182;28;20529;-81
2022/05/20 08:07:31;;;;;;;10.23;8.60;;;;;;;;;;4997457;28;20046;-81
2022/05/20 08:09:58;;;;;;;9.95;8.23;;;;;;;;;;4993048;28;20050;-82
2022/05/20 08:12:28;;;;;;;10.30;8.98;;;;;;;;;;4990479;28;20046;-82
2022/05/20 08:14:57;;;;;;;10.53;9.27;;;;;;;;;;4990978;28;20042;-82
2022/05/20 08:17:26;;;;;;;12.95;9.15;;;;;;;;;;4986554;28;20062;-80
2022/05/20 08:19:56;;;;;;;11.02;8.75;;;;;;;;;;4973122;28;20136;-81
2022/05/20 08:22:26;;;;;;;10.55;9.20;;;;;;;;;;4981351;28;20450;-81
2022/05/20 08:24:53;;;;;;;10.18;8.90;;;;;;;;;;4980604;28;20045;-81
2022/05/20 08:27:22;;;;;;;10.07;9.02;;;;;;;;;;5012039;28;20054;-81
2022/05/20 08:29:49;;;;;;;11.00;8.70;;;;;;;;;;4984667;28;20042;-81
2022/05/20 08:32:15;;;;;;;11.27;8.75;;;;;;;;;;4991452;28;20054;-81
2022/05/20 08:34:45;;;;;;;9.52;8.05;;;;;;;;;;4975721;28;20373;-81
2022/05/20 08:37:12;;;;;;;9.80;7.85;;;;;;;;;;5003061;28;20490;-82
2022/05/20 08:39:38;;;;;;;8.65;7.35;;;;;;;;;;4976072;28;20047;-81
2022/05/20 08:42:05;;;;;;;9.00;7.50;;;;;;;;;;4982534;28;20053;-81
2022/05/20 08:44:34;;;;;;;10.50;8.32;;;;;;;;;;4975473;28;20050;-81
2022/05/20 08:47:13;;;;;;;8.65;7.75;;;;;;;;;;4974074;28;20071;-81
2022/05/20 08:49:39;;;;;;;8.95;7.97;;;;;;;;;;4981051;28;20812;-81
2022/05/20 08:52:08;;;;;;;9.40;8.40;;;;;;;;;;4981090;28;20042;-81
2022/05/20 08:54:34;;;;;;;10.80;8.98;;;;;;;;;;4985438;28;20410;-81
2022/05/20 08:57:15;;;;;;;10.63;9.38;;;;;;;;;;4979389;28;20035;-82
2022/05/20 08:59:44;;;;;;;11.38;9.25;;;;;;;;;;4975238;28;20380;-82
2022/05/20 09:02:10;;;;;;;9.73;8.55;;;;;;;;;;4976517;28;20069;-81
2022/05/20 09:04:36;;;;;;;11.88;10.02;;;;;;;;;;4982951;28;20042;-81
2022/05/20 09:07:04;;;;;;;10.98;9.70;;;;;;;;;;4977678;28;20045;-81
2022/05/20 09:09:49;;;;;;;10.77;8.95;;;;;;;;;;4975909;28;20058;-82
2022/05/20 09:12:27;;;;;;;10.10;8.63;;;;;;;;;;4977618;28;20042;-81
2022/05/20 09:17:46;;;;;;;;;;;;;;;;;;4981884;28;20051;-81
2022/05/20 09:20:16;;;;;;;10.90;9.18;;;;;;;;;;4978605;28;19929;-81
2022/05/20 09:22:59;;;;;;;10.38;9.25;;;;;;;;;;4982579;28;20042;-81
2022/05/20 09:25:27;;;;;;;11.05;9.75;;;;;;;;;;4977120;28;20499;-84
2022/05/20 09:27:56;;;;;;;10.65;9.55;;;;;;;;;;5002717;28;20672;-82
2022/05/20 09:30:23;;;;;;;11.40;9.98;;;;;;;;;;4990807;28;20093;-82
2022/05/20 09:33:09;;;;;;;11.07;9.98;;;;;;;;;;4986363;28;20087;-82
2022/05/20 09:35:36;;;;;;;10.35;9.00;;;;;;;;;;4986918;28;20132;-80
2022/05/20 09:38:09;;;;;;;10.60;8.93;;;;;;;;;;4991805;28;20073;-81
2022/05/20 09:40:39;;;;;;;;;;;;;;;;;;5000566;28;20078;-80
2022/05/20 09:43:22;;;;;;;9.60;8.63;;;;;;;;;;5003234;28;19921;-81
2022/05/20 09:45:50;;;;;;;9.73;8.77;;;;;;;;;;4991281;28;20055;-80
2022/05/20 09:48:20;;;;;;;10.43;9.45;;;;;;;;;;5000929;28;20132;-83
2022/05/20 09:50:57;;;;;;;11.70;10.18;;;;;;;;;;4985471;28;20058;-82
2022/05/20 09:53:34;;;;;;;10.57;9.48;;;;;;;;;;4990768;28;20046;-81
2022/05/20 09:56:19;;;;;;;10.50;9.40;;;;;;;;;;4991722;28;20053;-81
2022/05/20 09:59:05;;;;;;;11.63;10.07;;;;;;;;;;4999416;28;20794;-83
2022/05/20 10:01:32;;;;;;;10.57;9.57;;;;;;;;;;4981885;28;20070;-82
2022/05/20 10:04:02;;;;;;;10.90;9.90;;;;;;;;;;4973455;28;20132;-82
2022/05/20 10:06:28;;;;;;;11.43;9.88;;;;;;;;;;4974353;28;20055;-81
2022/05/20 10:09:01;;;;;;;12.30;10.93;;;;;;;;;;4971592;28;20034;-82
2022/05/20 10:11:32;;;;;;;10.52;9.40;;;;;;;;;;4979718;28;20043;-82
2022/05/20 10:14:10;;;;;;;10.75;9.77;;;;;;;;;;4973147;28;20182;-82
2022/05/20 10:16:42;;;;;;;11.13;10.02;;;;;;;;;;4984172;28;20364;-82
2022/05/20 10:19:20;;;;;;;11.53;10.53;;;;;;;;;;4993392;28;20046;-82
2022/05/20 10:21:47;;;;;;;10.32;9.25;;;;;;;;;;4975264;28;20161;-81
2022/05/20 10:24:29;;;;;;;11.63;10.43;;;;;;;;;;4973364;28;20140;-82
2022/05/20 10:27:08;;;;;;;10.48;9.48;;;;;;;;;;4976073;28;20059;-81
2022/05/20 10:32:47;;;;;;;10.75;9.65;;;;;;;;;;5007388;28;20046;-82
2022/05/20 10:35:17;;;;;;;10.90;9.80;;;;;;;;;;4975352;28;20555;-81
2022/05/20 10:37:43;;;;;;;10.48;9.57;;;;;;;;;;4981390;28;20108;-80
2022/05/20 10:40:29;;;;;;;10.77;9.32;;;;;;;;;;4973286;28;20126;-81
2022/05/20 10:43:10;;;;;;;11.13;9.98;;;;;;;;;;4970232;28;20171;-82
2022/05/20 10:48:42;;;;;;;10.68;9.55;;;;;;;;;;4970758;28;20494;-80
2022/05/20 10:51:14;;;;;;;11.02;9.95;;;;;;;;;;4975256;28;20054;-80
2022/05/20 10:53:40;;;;;;;10.48;9.45;;;;;;;;;;4970660;28;20057;-80
2022/05/20 10:56:18;;;;;;;11.95;10.75;;;;;;;;;;4999636;28;20149;-80
2022/05/20 10:59:07;;;;;;;10.98;9.88;;;;;;;;;;4972559;28;20047;-80
2022/05/20 11:01:42;;;;;;;11.27;10.20;;;;;;;;;;4980693;28;20080;-80
2022/05/20 11:04:11;;;;;;;11.07;9.98;;;;;;;;;;4973331;28;20132;-80
2022/05/20 11:06:56;;;;;;;10.80;9.70;;;;;;;;;;4975262;28;20051;-80
2022/05/20 11:09:34;;;;;;;12.45;9.10;;;;;;;;;;4976087;28;20054;-79
2022/05/20 11:12:01;;;;;;;11.45;10.35;;;;;;;;;;4971516;28;20055;-80
2022/05/20 11:14:42;;;;;;;12.77;10.02;;;;;;;;;;4972137;28;20578;-80
2022/05/20 11:17:22;;;;;;;11.55;10.45;;;;;;;;;;4973530;28;20046;-80
2022/05/20 11:20:03;;;;;;;11.50;10.40;;;;;;;;;;4971468;28;20039;-81
2022/05/20 11:22:39;;;;;;;11.50;10.32;;;;;;;;;;4971123;28;20141;-79
2022/05/20 11:25:08;;;;;;;12.55;11.38;;;;;;;;;;4974807;28;20525;-80
2022/05/20 11:27:34;;;;;;;12.15;10.75;;;;;;;;;;4969265;28;20181;-80
2022/05/20 11:30:15;;;;;;;11.75;10.65;;;;;;;;;;4973859;28;20073;-79
2022/05/20 11:33:00;;;;;;;11.65;10.57;;;;;;;;;;4973417;28;20054;-80
2022/05/20 11:35:44;;;;;;;11.65;10.45;;;;;;;;;;4975367;28;20050;-81
2022/05/20 11:38:25;;;;;;;12.15;11.05;;;;;;;;;;4987754;28;20454;-80
2022/05/20 11:40:51;;;;;;;11.48;10.38;;;;;;;;;;5007691;28;20057;-80
2022/05/20 11:43:18;;;;;;;11.07;9.82;;;;;;;;;;5010973;28;20080;-80
2022/05/20 11:45:47;;;;;;;11.40;10.30;;;;;;;;;;4992357;28;20129;-81
2022/05/20 11:48:13;;;;;;;11.85;10.52;;;;;;;;;;4990058;28;20077;-80
2022/05/20 11:50:51;;;;;;;10.45;9.00;;;;;;;;;;4990315;28;20457;-80
2022/05/20 11:53:20;;;;;;;10.32;9.32;;;;;;;;;;4989365;28;20104;-81
2022/05/20 11:55:49;;;;;;;9.23;8.07;;;;;;;;;;5012132;28;20136;-81
2022/05/20 11:58:34;;;;;;;8.90;8.10;;;;;;;;;;4972451;28;20133;-81
2022/05/20 12:01:01;;;;;;;9.77;8.05;;;;;;;;;;4988865;28;20048;-81
2022/05/20 12:03:30;;;;;;;9.57;8.68;;;;;;;;;;5010440;28;20123;-80
2022/05/20 12:05:58;;;;;;;10.15;8.48;;;;;;;;;;4990933;28;20490;-80
2022/05/20 12:08:40;;;;;;;10.40;9.32;;;;;;;;;;4986357;28;20439;-81
2022/05/20 12:11:18;;;;;;;10.95;9.07;;;;;;;;;;4980239;28;20095;-81
2022/05/20 12:14:17;;;;;;;10.50;9.50;;;;;;;;;;4989982;28;20053;-80
2022/05/20 12:17:03;;;;;;;10.23;9.32;;;;;;;;;;4975133;28;20102;-81
2022/05/20 12:26:15;;;;;;;8.73;7.25;;;;;;;;;;5018225;28;20070;-80
2022/05/20 12:28:43;;;;;;;7.55;6.72;;;;;;;;;;4972251;28;20218;-81
2022/05/20 12:31:12;;;;;;;8.80;7.90;;;;;;;;;;4968795;28;20487;-81
2022/05/20 12:33:50;;;;;;;8.77;7.88;;;;;;;;;;4975062;28;20142;-81
2022/05/20 12:36:21;;;;;;;9.27;7.20;;;;;;;;;;4971533;28;20877;-80
2022/05/20 12:38:47;;;;;;;8.00;6.88;;;;;;;;;;4970289;28;20057;-81
2022/05/20 12:41:32;;;;;;;6.82;6.10;;;;;;;;;;4971204;28;20607;-81
2022/05/20 12:44:01;;;;;;;8.40;6.15;;;;;;;;;;4972624;28;20493;-82
2022/05/20 12:46:39;;;;;;;6.53;5.90;;;;;;;;;;4969352;28;20185;-81
2022/05/20 12:49:05;;;;;;;6.90;5.80;;;;;;;;;;4971036;28;20046;-81
2022/05/20 12:51:40;;;;;;;7.97;6.78;;;;;;;;;;4970473;28;20057;-81
2022/05/20 12:54:13;;;;;;;6.75;5.88;;;;;;;;;;5000585;28;20047;-81
2022/05/20 12:56:40;;;;;;;6.07;5.47;;;;;;;;;;4971032;28;20533;-82
2022/05/20 12:59:13;;;;;;;7.80;5.40;;;;;;;;;;4966155;28;20043;-82
2022/05/20 13:01:42;;;;;;;6.53;5.78;;;;;;;;;;4974809;28;20046;-82
2022/05/20 13:04:11;;;;;;;6.75;5.28;;;;;;;;;;4972879;28;20431;-82
2022/05/20 13:06:38;;;;;;;6.40;5.22;;;;;;;;;;4970566;28;20051;-81
2022/05/20 13:09:08;;;;;;;5.20;4.70;;;;;;;;;;4974030;28;20109;-81
2022/05/20 13:11:47;;;;;;;6.60;5.47;;;;;;;;;;4976045;28;20495;-81
2022/05/20 13:14:15;;;;;;;7.72;5.63;;;;;;;;;;4969885;28;20457;-81
2022/05/20 13:16:44;;;;;;;5.35;4.85;;;;;;;;;;4973229;28;20491;-81
2022/05/20 13:19:13;;;;;;;6.75;5.82;;;;;;;;;;5006963;28;20128;-81
2022/05/20 13:21:42;;;;;;;6.32;5.60;;;;;;;;;;4995905;28;20058;-81
2022/05/20 13:24:19;;;;;;;6.30;5.47;;;;;;;;;;4982545;28;20039;-81
2022/05/20 13:26:45;;;;;;;6.57;5.90;;;;;;;;;;4991043;28;20497;-80
2022/05/20 13:29:13;;;;;;;8.25;6.22;;;;;;;;;;4974233;28;20058;-80
2022/05/20 13:31:40;;;;;;;8.38;6.50;;;;;;;;;;4990215;28;20121;-82
2022/05/20 13:34:07;;;;;;;7.05;6.32;;;;;;;;;;4989479;28;20125;-83
2022/05/20 13:36:43;;;;;;;8.80;7.00;;;;;;;;;;4982433;28;20101;-82
2022/05/20 13:39:12;;;;;;;9.02;6.78;;;;;;;;;;4974405;28;20043;-81
2022/05/20 13:41:39;;;;;;;12.25;7.68;;;;;;;;;;4989214;28;20052;-81
2022/05/20 13:44:11;;;;;;;9.02;7.18;;;;;;;;;;5008000;28;20068;-82
2022/05/20 13:49:31;;;;;;;9.07;6.28;;;;;;;;;;4986312;28;20637;-83
2022/05/20 13:51:58;;;;;;;9.35;6.25;;;;;;;;;;4984780;28;20565;-81
2022/05/20 13:54:24;;;;;;;8.40;6.43;;;;;;;;;;4975595;28;20054;-82
2022/05/20 13:56:52;;;;;;;7.63;6.88;;;;;;;;;;4974415;28;20089;-82
2022/05/20 13:59:30;;;;;;;9.68;7.28;;;;;;;;;;4977302;28;20478;-82
2022/05/20 14:02:03;;;;;;;8.07;6.43;;;;;;;;;;5021474;28;20500;-82
2022/05/20 14:04:42;;;;;;;8.02;5.88;;;;;;;;;;4989368;28;20073;-82
2022/05/20 14:07:16;;;;;;;7.60;6.15;;;;;;;;;;4982001;28;20121;-82
2022/05/20 14:09:43;;;;;;;8.90;6.43;;;;;;;;;;4976575;28;20039;-81
2022/05/20 14:12:18;;;;;;;7.43;6.10;;;;;;;;;;4986447;28;20044;-82
2022/05/20 14:14:45;;;;;;;5.57;4.50;;;;;;;;;;4996543;28;20534;-83
2022/05/20 14:17:13;;;;;;;5.97;4.53;;;;;;;;;;4992604;28;20058;-83
2022/05/20 14:19:42;;;;;;;5.50;4.72;;;;;;;;;;4996553;28;21234;-82
2022/05/20 14:22:11;;;;;;;7.80;4.97;;;;;;;;;;4987507;28;20157;-80
2022/05/20 14:24:45;;;;;;;5.72;4.45;;;;;;;;;;4978023;28;20046;-81
2022/05/20 14:27:30;;;;;;;5.85;4.57;;;;;;;;;;4980736;28;20113;-81
2022/05/20 14:30:14;;;;;;;5.20;4.45;;;;;;;;;;4975853;28;20481;-81
2022/05/20 14:32:40;;;;;;;6.07;4.68;;;;;;;;;;4974759;28;20121;-81
2022/05/20 14:35:07;;;;;;;5.80;5.20;;;;;;;;;;5004745;28;21672;-81
2022/05/20 14:37:34;;;;;;;5.28;4.78;;;;;;;;;;4972876;28;20054;-81
2022/05/20 14:40:01;;;;;;;8.68;5.60;;;;;;;;;;4975443;28;20043;-81
2022/05/20 14:42:31;;;;;;;7.03;5.43;;;;;;;;;;4976639;28;20043;-81
2022/05/20 14:44:59;;;;;;;5.60;5.00;;;;;;;;;;4982502;28;20157;-81
2022/05/20 14:47:36;;;;;;;9.63;5.57;;;;;;;;;;4988349;28;20093;-82
2022/05/20 14:50:07;;;;;;;6.82;5.28;;;;;;;;;;4986534;28;20260;-82
2022/05/20 14:52:44;;;;;;;6.20;5.13;;;;;;;;;;4992900;28;20059;-82
2022/05/20 14:55:14;;;;;;;7.00;5.28;;;;;;;;;;4978310;28;20447;-81
2022/05/20 14:57:40;;;;;;;7.35;5.28;;;;;;;;;;4987777;28;20121;-81
2022/05/20 15:00:09;;;;;;;7.82;5.57;;;;;;;;;;5000508;28;20096;-82
2022/05/20 15:02:36;;;;;;;7.38;5.80;;;;;;;;;;4983175;28;20097;-81
2022/05/20 15:05:02;;;;;;;6.20;5.50;;;;;;;;;;4996576;28;20057;-81
2022/05/20 15:07:28;;;;;;;8.07;5.75;;;;;;;;;;5002669;28;20042;-81
2022/05/20 15:09:55;;;;;;;6.00;5.43;;;;;;;;;;4994149;28;20054;-81
2022/05/20 15:12:22;;;;;;;6.60;5.85;;;;;;;;;;4982200;28;20042;-83
2022/05/20 15:14:48;;;;;;;7.07;6.28;;;;;;;;;;4982045;28;20050;-82
2022/05/20 15:17:18;;;;;;;7.65;6.22;;;;;;;;;;4981165;28;20053;-82
2022/05/20 15:19:45;;;;;;;10.57;6.45;;;;;;;;;;4981799;28;20050;-80
2022/05/20 15:22:12;;;;;;;8.00;6.28;;;;;;;;;;4983900;28;20046;-81
2022/05/20 15:24:44;;;;;;;7.70;6.38;;;;;;;;;;4981527;28;20495;-82
2022/05/20 15:27:14;;;;;;;7.60;6.18;;;;;;;;;;4976201;28;20337;-82